createdAt,value
2023-08-07T00:01:46.698Z,17.75
2023-08-07T00:04:13.388Z,17.49
2023-08-07T00:06:39.877Z,17.72
2023-08-07T00:09:06.416Z,17.53
2023-08-07T00:11:32.887Z,17.58
2023-08-07T00:14:00.485Z,17.59
2023-08-07T00:16:27.195Z,17.56
2023-08-07T00:18:57.133Z,17.51
2023-08-07T00:21:24.285Z,17.63
2023-08-07T00:23:51.985Z,17.47
2023-08-07T00:26:19.170Z,17.18
2023-08-07T00:28:45.923Z,17.36
2023-08-07T00:31:13.510Z,17.34
2023-08-07T00:33:40.216Z,17.32
2023-08-07T00:36:06.842Z,17.29
2023-08-07T00:38:33.385Z,17.26
2023-08-07T00:41:01.035Z,16.96
2023-08-07T00:43:27.651Z,17.25
2023-08-07T00:45:54.753Z,17.19
2023-08-07T00:48:21.959Z,17.27
2023-08-07T00:50:50.011Z,16.66
2023-08-07T00:53:16.995Z,17.03
2023-08-07T00:55:43.971Z,17.28
2023-08-07T00:58:11.695Z,17.29
2023-08-07T01:00:38.392Z,17.05
2023-08-07T01:03:07.940Z,17.29
2023-08-07T01:05:35.729Z,17.30
2023-08-07T01:08:04.175Z,17.30
2023-08-07T01:10:56.820Z,17.34
2023-08-07T01:13:50.026Z,17.33
2023-08-07T01:16:38.961Z,17.31
2023-08-07T01:19:12.007Z,17.26
2023-08-07T01:21:38.803Z,17.12
2023-08-07T01:24:05.586Z,17.19
2023-08-07T01:26:33.586Z,17.08
2023-08-07T01:29:13.120Z,17.13
2023-08-07T01:31:41.813Z,17.00
2023-08-07T01:34:09.816Z,16.82
2023-08-07T01:36:38.371Z,17.02
2023-08-07T01:39:08.027Z,16.89
2023-08-07T01:41:37.004Z,16.81
2023-08-07T01:44:04.937Z,16.47
2023-08-07T01:46:31.583Z,16.91
2023-08-07T01:48:58.103Z,16.78
2023-08-07T01:51:24.597Z,16.80
2023-08-07T01:53:51.224Z,16.83
2023-08-07T01:56:17.764Z,16.82
2023-08-07T01:58:44.241Z,16.50
2023-08-07T02:01:10.782Z,16.79
2023-08-07T02:03:37.380Z,16.78
2023-08-07T02:06:04.450Z,16.50
2023-08-07T02:08:30.932Z,16.77
2023-08-07T02:10:57.978Z,16.47
2023-08-07T02:13:24.579Z,16.74
2023-08-07T02:15:51.061Z,16.63
2023-08-07T02:18:17.602Z,16.68
2023-08-07T02:20:44.899Z,16.72
2023-08-07T02:23:11.380Z,16.42
2023-08-07T02:25:37.822Z,16.71
2023-08-07T02:28:04.473Z,16.71
2023-08-07T02:30:32.267Z,16.63
2023-08-07T02:32:58.783Z,16.63
2023-08-07T02:35:25.695Z,16.51
2023-08-07T02:37:52.167Z,16.69
2023-08-07T02:40:20.124Z,16.65
2023-08-07T02:42:46.726Z,16.68
2023-08-07T02:45:22.233Z,16.53
2023-08-07T02:47:48.894Z,16.72
2023-08-07T02:50:15.762Z,16.71
2023-08-07T02:52:44.368Z,16.74
2023-08-07T02:55:12.351Z,16.74
2023-08-07T02:57:38.821Z,16.61
2023-08-07T03:00:06.097Z,16.53
2023-08-07T03:02:32.583Z,16.68
2023-08-07T03:04:59.282Z,16.59
2023-08-07T03:07:26.158Z,16.60
2023-08-07T03:09:52.610Z,16.73
2023-08-07T03:12:19.030Z,16.77
2023-08-07T03:14:45.606Z,16.78
2023-08-07T03:17:12.074Z,16.80
2023-08-07T03:19:38.538Z,16.61
2023-08-07T03:22:05.142Z,16.62
2023-08-07T03:24:31.852Z,16.49
2023-08-07T03:26:58.402Z,16.84
2023-08-07T03:29:24.938Z,16.75
2023-08-07T03:31:51.526Z,16.76
2023-08-07T03:34:18.063Z,16.63
2023-08-07T03:36:46.205Z,16.59
2023-08-07T03:39:13.353Z,16.90
2023-08-07T03:41:39.823Z,16.87
2023-08-07T03:44:06.588Z,16.82
2023-08-07T03:46:33.322Z,16.93
2023-08-07T03:48:59.829Z,16.78
2023-08-07T03:51:26.383Z,16.91
2023-08-07T03:53:52.866Z,16.93
2023-08-07T03:56:19.467Z,16.79
2023-08-07T03:58:45.981Z,16.87
2023-08-07T04:01:12.596Z,17.01
2023-08-07T04:03:39.621Z,17.00
2023-08-07T04:06:06.961Z,17.01
2023-08-07T04:08:33.716Z,17.03
2023-08-07T04:11:01.619Z,17.04
2023-08-07T04:13:29.259Z,17.05
2023-08-07T04:15:56.184Z,16.81
2023-08-07T04:18:23.134Z,17.00
2023-08-07T04:20:53.754Z,17.10
2023-08-07T04:23:20.753Z,17.11
2023-08-07T04:25:51.000Z,17.12
2023-08-07T04:28:17.732Z,17.14
2023-08-07T04:30:45.081Z,17.16
2023-08-07T04:33:11.964Z,17.14
2023-08-07T04:35:38.458Z,17.20
2023-08-07T04:38:05.080Z,17.00
2023-08-07T04:40:31.727Z,17.25
2023-08-07T04:42:58.509Z,17.27
2023-08-07T04:45:25.114Z,17.30
2023-08-07T04:47:51.955Z,16.97
2023-08-07T04:50:19.003Z,17.31
2023-08-07T04:52:45.795Z,17.05
2023-08-07T04:55:12.697Z,17.12
2023-08-07T04:57:39.247Z,17.43
2023-08-07T05:00:06.806Z,17.49
2023-08-07T05:02:33.711Z,17.54
2023-08-07T05:05:00.624Z,17.27
2023-08-07T05:07:27.120Z,17.47
2023-08-07T05:09:54.605Z,17.63
2023-08-07T05:12:21.115Z,17.68
2023-08-07T05:14:47.595Z,17.76
2023-08-07T05:17:14.917Z,17.78
2023-08-07T05:19:41.408Z,17.86
2023-08-07T05:22:07.853Z,17.89
2023-08-07T05:24:40.241Z,17.55
2023-08-07T05:27:09.304Z,17.78
2023-08-07T05:29:44.373Z,18.03
2023-08-07T05:32:12.452Z,18.09
2023-08-07T05:34:39.396Z,18.13
2023-08-07T05:37:07.121Z,18.13
2023-08-07T05:39:34.015Z,18.20
2023-08-07T05:42:00.825Z,18.19
2023-08-07T05:44:27.435Z,18.10
2023-08-07T05:46:53.892Z,18.21
2023-08-07T05:49:23.956Z,18.34
2023-08-07T05:51:52.045Z,18.16
2023-08-07T05:54:18.539Z,18.08
2023-08-07T05:56:44.989Z,18.46
2023-08-07T05:59:11.635Z,18.53
2023-08-07T06:01:38.146Z,18.62
2023-08-07T06:04:05.009Z,18.18
2023-08-07T06:06:35.605Z,18.50
2023-08-07T06:09:03.658Z,18.78
2023-08-07T06:11:30.268Z,18.81
2023-08-07T06:13:57.122Z,18.67
2023-08-07T06:16:23.618Z,18.81
2023-08-07T06:18:50.124Z,18.77
2023-08-07T06:21:16.980Z,18.66
2023-08-07T06:23:43.433Z,18.73
2023-08-07T06:26:09.890Z,18.73
2023-08-07T06:28:37.692Z,18.78
2023-08-07T06:31:05.585Z,18.83
2023-08-07T06:33:32.363Z,18.84
2023-08-07T06:35:59.189Z,18.88
2023-08-07T06:38:25.991Z,18.89
2023-08-07T06:40:52.792Z,18.92
2023-08-07T06:43:19.571Z,18.99
2023-08-07T06:45:56.571Z,18.98
2023-08-07T06:48:23.571Z,18.90
2023-08-07T06:50:51.645Z,19.09
2023-08-07T06:53:18.663Z,19.09
2023-08-07T06:55:45.700Z,19.14
2023-08-07T06:58:12.259Z,19.08
2023-08-07T07:00:38.811Z,19.23
2023-08-07T07:03:06.022Z,19.25
2023-08-07T07:05:33.825Z,19.20
2023-08-07T07:08:00.654Z,19.19
2023-08-07T07:10:27.094Z,19.14
2023-08-07T07:12:53.582Z,19.19
2023-08-07T07:15:20.088Z,19.00
2023-08-07T07:17:46.841Z,18.94
2023-08-07T07:20:13.693Z,19.31
2023-08-07T07:22:40.164Z,19.38
2023-08-07T07:25:07.168Z,19.36
2023-08-07T07:27:33.649Z,19.24
2023-08-07T07:30:00.208Z,18.95
2023-08-07T07:32:27.372Z,18.63
2023-08-07T07:34:53.941Z,18.36
2023-08-07T07:37:20.451Z,18.08
2023-08-07T07:39:46.961Z,17.83
2023-08-07T07:42:13.490Z,17.80
2023-08-07T07:44:40.794Z,17.69
2023-08-07T07:47:09.636Z,17.64
2023-08-07T07:49:38.021Z,17.62
2023-08-07T07:52:04.985Z,17.96
2023-08-07T07:54:31.575Z,17.99
2023-08-07T07:56:58.462Z,18.04
2023-08-07T07:59:25.147Z,18.11
2023-08-07T08:01:52.458Z,18.34
2023-08-07T08:04:20.519Z,18.42
2023-08-07T08:06:49.405Z,18.51
2023-08-07T08:09:16.704Z,18.49
2023-08-07T08:11:43.387Z,18.47
2023-08-07T08:14:10.382Z,18.38
2023-08-07T08:16:36.897Z,18.21
2023-08-07T08:19:03.717Z,18.10
2023-08-07T08:21:31.938Z,17.93
2023-08-07T08:23:58.435Z,17.88
2023-08-07T08:26:24.967Z,17.75
2023-08-07T08:28:51.391Z,17.64
2023-08-07T08:31:17.896Z,17.62
2023-08-07T08:33:44.436Z,17.65
2023-08-07T08:36:10.940Z,17.67
2023-08-07T08:38:37.396Z,17.45
2023-08-07T08:41:04.895Z,17.76
2023-08-07T08:43:35.639Z,17.77
2023-08-07T08:46:02.298Z,17.75
2023-08-07T08:48:32.470Z,17.76
2023-08-07T08:50:59.338Z,17.89
2023-08-07T08:53:26.527Z,17.78
2023-08-07T08:55:53.260Z,17.75
2023-08-07T08:58:22.238Z,17.74
2023-08-07T09:00:49.565Z,17.74
2023-08-07T09:03:16.308Z,17.79
2023-08-07T09:05:43.393Z,17.91
2023-08-07T09:08:11.080Z,18.06
2023-08-07T09:10:38.999Z,18.25
2023-08-07T09:13:12.018Z,18.48
2023-08-07T09:15:40.809Z,18.75
2023-08-07T09:18:08.891Z,19.04
2023-08-07T09:20:37.557Z,19.31
2023-08-07T09:23:04.055Z,19.59
2023-08-07T09:25:32.261Z,19.81
2023-08-07T09:27:58.882Z,20.09
2023-08-07T09:30:29.994Z,20.35
2023-08-07T09:33:03.496Z,20.39
2023-08-07T09:35:32.256Z,20.66
2023-08-07T09:37:59.519Z,20.81
2023-08-07T09:40:26.112Z,20.70
2023-08-07T09:42:54.453Z,21.13
2023-08-07T09:45:25.696Z,21.26
2023-08-07T09:48:03.069Z,21.61
2023-08-07T09:50:30.892Z,21.83
2023-08-07T09:52:59.147Z,21.99
2023-08-07T09:55:26.860Z,22.32
2023-08-07T09:57:54.050Z,22.41
2023-08-07T10:00:21.257Z,22.50
2023-08-07T10:05:18.666Z,22.52
2023-08-07T10:07:45.259Z,22.46
2023-08-07T10:10:12.015Z,22.23
2023-08-07T10:12:42.254Z,22.01
2023-08-07T10:15:09.512Z,22.06
2023-08-07T10:17:36.122Z,21.89
2023-08-07T10:20:02.746Z,21.95
2023-08-07T10:22:31.908Z,21.82
2023-08-07T10:25:01.946Z,21.79
2023-08-07T10:27:32.295Z,21.68
2023-08-07T10:30:01.241Z,21.58
2023-08-07T10:32:28.910Z,21.57
2023-08-07T10:34:55.674Z,21.27
2023-08-07T10:37:44.742Z,21.38
2023-08-07T10:40:13.693Z,21.44
2023-08-07T10:43:14.134Z,21.55
2023-08-07T10:45:40.829Z,21.55
2023-08-07T10:48:09.528Z,21.66
2023-08-07T10:50:49.689Z,21.73
2023-08-07T10:53:31.129Z,21.86
2023-08-07T10:56:01.072Z,21.77
2023-08-07T10:58:35.460Z,21.62
2023-08-07T11:01:23.293Z,21.66
2023-08-07T11:04:14.284Z,21.65
2023-08-07T11:06:42.599Z,21.56
2023-08-07T11:09:10.780Z,21.59
2023-08-07T11:11:45.998Z,21.55
2023-08-07T11:14:17.282Z,21.33
2023-08-07T11:16:45.308Z,21.14
2023-08-07T11:19:14.133Z,20.92
2023-08-07T11:21:44.097Z,20.64
2023-08-07T11:24:14.472Z,20.77
2023-08-07T11:26:43.687Z,20.78
2023-08-07T11:29:10.491Z,20.96
2023-08-07T11:31:37.346Z,21.13
2023-08-07T11:34:04.056Z,21.20
2023-08-07T11:36:30.907Z,21.10
2023-08-07T11:38:57.676Z,21.36
2023-08-07T11:41:24.287Z,21.25
2023-08-07T11:43:50.774Z,21.39
2023-08-07T11:46:17.347Z,21.26
2023-08-07T11:48:48.460Z,21.14
2023-08-07T11:51:15.229Z,20.86
2023-08-07T11:53:43.033Z,20.93
2023-08-07T11:56:16.949Z,20.89
2023-08-07T11:58:48.642Z,20.77
2023-08-07T12:01:15.502Z,20.93
2023-08-07T12:04:09.522Z,20.82
2023-08-07T12:06:37.600Z,20.74
2023-08-07T12:09:04.506Z,20.64
2023-08-07T12:11:31.793Z,20.41
2023-08-07T12:14:01.701Z,20.11
2023-08-07T12:16:33.944Z,20.01
2023-08-07T12:19:00.379Z,20.12
2023-08-07T12:21:27.224Z,20.21
2023-08-07T12:23:56.828Z,20.22
2023-08-07T12:26:23.491Z,20.09
2023-08-07T12:28:50.826Z,20.31
2023-08-07T12:31:18.742Z,20.18
2023-08-07T12:33:45.445Z,20.38
2023-08-07T12:38:44.569Z,19.96
2023-08-07T12:41:44.834Z,19.76
2023-08-07T12:43:57.560Z,19.39
2023-08-07T12:48:53.442Z,19.28
2023-08-07T12:51:20.031Z,19.22
2023-08-07T12:53:46.636Z,19.14
2023-08-07T12:56:13.424Z,19.14
2023-08-07T12:58:42.331Z,18.95
2023-08-07T13:01:10.196Z,18.79
2023-08-07T13:03:36.665Z,18.87
2023-08-07T13:06:06.573Z,18.87
2023-08-07T13:08:34.612Z,18.97
2023-08-07T13:11:01.860Z,19.22
2023-08-07T13:13:31.930Z,19.46
2023-08-07T13:15:58.332Z,19.89
2023-08-07T13:18:25.592Z,19.95
2023-08-07T13:20:51.984Z,20.08
2023-08-07T13:23:18.435Z,20.49
2023-08-07T13:25:44.869Z,20.69
2023-08-07T13:28:11.333Z,20.89
2023-08-07T13:30:38.228Z,20.66
2023-08-07T13:33:05.060Z,20.86
2023-08-07T13:35:33.979Z,21.11
2023-08-07T13:38:00.921Z,21.08
2023-08-07T13:40:27.494Z,21.09
2023-08-07T13:42:54.356Z,21.07
2023-08-07T13:45:21.198Z,21.31
2023-08-07T13:47:47.696Z,21.29
2023-08-07T13:50:14.296Z,21.49
2023-08-07T13:52:40.852Z,21.43
2023-08-07T13:55:09.964Z,21.42
2023-08-07T13:57:36.617Z,21.35
2023-08-07T14:00:03.979Z,21.24
2023-08-07T14:02:31.406Z,20.96
2023-08-07T14:04:58.496Z,21.14
2023-08-07T14:07:24.991Z,20.98
2023-08-07T14:09:51.438Z,21.10
2023-08-07T14:12:17.953Z,21.17
2023-08-07T14:14:44.505Z,21.28
2023-08-07T14:17:10.954Z,21.26
2023-08-07T14:19:37.448Z,21.08
2023-08-07T14:22:04.114Z,21.15
2023-08-07T14:24:30.813Z,20.79
2023-08-07T14:26:57.254Z,20.93
2023-08-07T14:29:23.758Z,20.74
2023-08-07T14:31:50.207Z,20.81
2023-08-07T14:34:16.914Z,20.60
2023-08-07T14:36:43.478Z,20.77
2023-08-07T14:39:10.006Z,20.80
2023-08-07T14:41:36.535Z,20.51
2023-08-07T14:44:03.071Z,20.82
2023-08-07T14:46:29.619Z,21.08
2023-08-07T14:48:56.777Z,21.12
2023-08-07T14:51:23.311Z,21.06
2023-08-07T14:53:50.161Z,21.01
2023-08-07T14:56:16.675Z,20.68
2023-08-07T14:58:43.123Z,20.27
2023-08-07T15:01:09.594Z,19.83
2023-08-07T15:03:36.092Z,19.20
2023-08-07T15:06:02.669Z,18.97
2023-08-07T15:08:29.139Z,18.69
2023-08-07T15:10:55.651Z,18.41
2023-08-07T15:13:22.169Z,17.74
2023-08-07T15:15:48.738Z,17.81
2023-08-07T15:18:15.374Z,17.62
2023-08-07T15:20:41.910Z,17.49
2023-08-07T15:23:08.577Z,17.41
2023-08-07T15:25:35.123Z,17.37
2023-08-07T15:28:02.468Z,17.29
2023-08-07T15:30:30.154Z,17.29
2023-08-07T15:32:57.393Z,17.30
2023-08-07T15:35:24.403Z,17.05
2023-08-07T15:37:50.960Z,17.21
2023-08-07T15:40:17.494Z,17.04
2023-08-07T15:42:46.557Z,16.69
2023-08-07T15:45:14.244Z,16.68
2023-08-07T15:47:40.991Z,16.26
2023-08-07T15:50:07.825Z,16.40
2023-08-07T15:52:34.359Z,16.28
2023-08-07T15:55:00.965Z,16.19
2023-08-07T15:57:27.414Z,16.15
2023-08-07T15:59:54.071Z,16.11
2023-08-07T16:02:20.638Z,16.09
2023-08-07T16:04:47.220Z,15.99
2023-08-07T16:07:13.811Z,16.06
2023-08-07T16:09:40.244Z,15.93
2023-08-07T16:12:07.233Z,16.10
2023-08-07T16:14:36.357Z,16.16
2023-08-07T16:17:05.752Z,16.26
2023-08-07T16:19:32.617Z,16.37
2023-08-07T16:21:59.063Z,16.35
2023-08-07T16:24:25.561Z,16.62
2023-08-07T16:26:52.028Z,16.82
2023-08-07T16:29:18.857Z,16.96
2023-08-07T16:31:45.416Z,17.11
2023-08-07T16:34:12.051Z,17.17
2023-08-07T16:36:38.949Z,17.46
2023-08-07T16:39:05.391Z,17.54
2023-08-07T16:41:31.999Z,17.61
2023-08-07T16:43:58.582Z,17.36
2023-08-07T16:46:25.076Z,17.73
2023-08-07T16:48:51.656Z,17.68
2023-08-07T16:51:19.878Z,17.68
2023-08-07T16:53:49.060Z,17.84
2023-08-07T16:56:16.004Z,17.92
2023-08-07T16:58:44.984Z,18.00
2023-08-07T17:01:11.514Z,18.08
2023-08-07T17:03:38.030Z,18.06
2023-08-07T17:06:04.654Z,18.26
2023-08-07T17:08:31.335Z,18.33
2023-08-07T17:10:57.760Z,18.15
2023-08-07T17:13:24.733Z,18.25
2023-08-07T17:15:51.398Z,18.46
2023-08-07T17:18:18.060Z,18.48
2023-08-07T17:20:44.754Z,18.53
2023-08-07T17:23:11.369Z,18.53
2023-08-07T17:25:37.814Z,18.55
2023-08-07T17:28:04.898Z,18.60
2023-08-07T17:30:31.448Z,18.64
2023-08-07T17:32:58.179Z,18.60
2023-08-07T17:35:25.290Z,18.52
2023-08-07T17:37:51.804Z,18.37
2023-08-07T17:40:18.344Z,18.17
2023-08-07T17:42:44.919Z,17.64
2023-08-07T17:45:13.368Z,17.75
2023-08-07T17:47:42.354Z,17.43
2023-08-07T17:50:10.410Z,17.41
2023-08-07T17:52:38.981Z,16.91
2023-08-07T17:55:06.405Z,17.22
2023-08-07T17:57:33.153Z,17.10
2023-08-07T17:59:59.700Z,16.81
2023-08-07T18:02:26.352Z,16.68
2023-08-07T18:04:52.968Z,16.45
2023-08-07T18:07:19.629Z,16.62
2023-08-07T18:09:46.160Z,16.46
2023-08-07T18:12:12.715Z,16.47
2023-08-07T18:14:39.595Z,16.40
2023-08-07T18:17:06.443Z,16.36
2023-08-07T18:19:33.058Z,16.31
2023-08-07T18:22:00.901Z,16.30
2023-08-07T18:24:27.975Z,16.27
2023-08-07T18:26:54.705Z,16.18
2023-08-07T18:29:21.285Z,16.06
2023-08-07T18:31:48.296Z,15.93
2023-08-07T18:34:14.778Z,15.83
2023-08-07T18:36:41.836Z,15.75
2023-08-07T18:39:08.441Z,15.67
2023-08-07T18:41:35.186Z,15.62
2023-08-07T18:44:03.102Z,15.20
2023-08-07T18:46:29.771Z,15.50
2023-08-07T18:48:56.339Z,15.45
2023-08-07T18:51:22.902Z,15.43
2023-08-07T18:53:49.399Z,15.38
2023-08-07T18:56:15.889Z,15.24
2023-08-07T18:58:42.434Z,15.38
2023-08-07T19:01:09.518Z,15.36
2023-08-07T19:03:36.238Z,15.38
2023-08-07T19:06:06.255Z,15.38
2023-08-07T19:08:36.016Z,15.13
2023-08-07T19:11:02.624Z,15.38
2023-08-07T19:13:29.178Z,15.31
2023-08-07T19:15:57.266Z,15.37
2023-08-07T19:18:24.670Z,15.39
2023-08-07T19:20:52.202Z,15.34
2023-08-07T19:23:19.072Z,15.35
2023-08-07T19:25:46.006Z,15.35
2023-08-07T19:28:13.834Z,15.33
2023-08-07T19:30:40.698Z,15.32
2023-08-07T19:33:10.770Z,15.35
2023-08-07T19:35:38.301Z,15.30
2023-08-07T19:38:05.001Z,15.35
2023-08-07T19:40:31.776Z,15.32
2023-08-07T19:42:58.366Z,15.33
2023-08-07T19:45:24.935Z,15.33
2023-08-07T19:47:51.490Z,15.18
2023-08-07T19:50:17.989Z,15.34
2023-08-07T19:52:44.440Z,15.27
2023-08-07T19:55:11.450Z,15.50
2023-08-07T19:57:38.858Z,15.37
2023-08-07T20:00:06.624Z,15.33
2023-08-07T20:02:34.225Z,15.60
2023-08-07T20:05:00.970Z,15.62
2023-08-07T20:07:27.694Z,15.63
2023-08-07T20:09:54.189Z,15.64
2023-08-07T20:12:21.850Z,15.42
2023-08-07T20:14:48.538Z,15.62
2023-08-07T20:17:15.098Z,15.47
2023-08-07T20:19:41.695Z,15.68
2023-08-07T20:22:08.450Z,15.68
2023-08-07T20:24:34.960Z,15.69
2023-08-07T20:27:01.489Z,15.67
2023-08-07T20:29:28.505Z,15.59
2023-08-07T20:31:55.009Z,15.75
2023-08-07T20:34:21.549Z,15.68
2023-08-07T20:36:48.051Z,15.78
2023-08-07T20:39:14.865Z,15.65
2023-08-07T20:41:41.378Z,15.76
2023-08-07T20:44:07.827Z,15.85
2023-08-07T20:46:34.307Z,15.90
2023-08-07T20:49:01.052Z,15.93
2023-08-07T20:51:27.572Z,15.90
2023-08-07T20:53:54.017Z,15.81
2023-08-07T20:56:20.579Z,15.94
2023-08-07T20:58:47.167Z,15.95
2023-08-07T21:01:13.779Z,16.00
2023-08-07T21:03:40.314Z,15.99
2023-08-07T21:06:06.776Z,15.77
2023-08-07T21:08:33.443Z,16.02
2023-08-07T21:11:00.065Z,16.05
2023-08-07T21:13:26.520Z,16.07
2023-08-07T21:15:53.036Z,16.08
2023-08-07T21:18:19.685Z,15.97
2023-08-07T21:20:46.374Z,16.11
2023-08-07T21:23:16.630Z,16.16
2023-08-07T21:25:43.335Z,16.19
2023-08-07T21:28:10.630Z,16.24
2023-08-07T21:30:37.716Z,16.22
2023-08-07T21:33:04.967Z,16.25
2023-08-07T21:35:31.650Z,16.19
2023-08-07T21:37:58.170Z,16.24
2023-08-07T21:40:24.868Z,16.16
2023-08-07T21:42:51.491Z,16.27
2023-08-07T21:45:18.051Z,16.22
2023-08-07T21:47:45.511Z,16.31
2023-08-07T21:50:12.423Z,16.16
2023-08-07T21:52:39.038Z,16.37
2023-08-07T21:55:06.070Z,16.28
2023-08-07T21:57:34.016Z,16.12
2023-08-07T22:00:00.731Z,16.26
2023-08-07T22:02:27.565Z,16.44
2023-08-07T22:04:54.265Z,16.41
2023-08-07T22:07:20.751Z,16.28
2023-08-07T22:09:47.385Z,16.34
2023-08-07T22:12:13.945Z,15.85
2023-08-07T22:14:40.458Z,15.82
2023-08-07T22:17:07.938Z,16.11
2023-08-07T22:19:34.955Z,16.07
2023-08-07T22:22:02.287Z,16.05
2023-08-07T22:24:28.900Z,16.01
2023-08-07T22:26:55.362Z,15.99
2023-08-07T22:29:21.836Z,15.99
2023-08-07T22:31:48.337Z,15.98
2023-08-07T22:34:15.039Z,15.97
2023-08-07T22:36:41.586Z,15.96
2023-08-07T22:39:08.109Z,15.97
2023-08-07T22:41:34.918Z,15.94
2023-08-07T22:44:02.103Z,16.01
2023-08-07T22:46:28.646Z,15.96
2023-08-07T22:48:55.275Z,16.01
2023-08-07T22:51:21.926Z,16.02
2023-08-07T22:53:48.481Z,16.02
2023-08-07T22:56:14.986Z,16.00
2023-08-07T22:58:41.615Z,16.02
2023-08-07T23:01:08.674Z,16.00
2023-08-07T23:03:35.180Z,16.00
2023-08-07T23:06:01.960Z,15.96
2023-08-07T23:08:28.449Z,15.91
2023-08-07T23:10:54.982Z,15.88
2023-08-07T23:13:21.556Z,15.61
2023-08-07T23:15:48.244Z,15.69
2023-08-07T23:18:15.067Z,15.54
2023-08-07T23:20:41.752Z,15.50
2023-08-07T23:23:08.325Z,15.35
2023-08-07T23:25:35.578Z,15.26
2023-08-07T23:28:02.628Z,15.12
2023-08-07T23:30:30.063Z,14.84
2023-08-07T23:32:56.718Z,14.96
2023-08-07T23:35:23.322Z,14.86
2023-08-07T23:37:49.830Z,14.81
2023-08-07T23:40:16.333Z,14.71
2023-08-07T23:42:42.921Z,14.70
2023-08-07T23:45:09.894Z,14.36
2023-08-07T23:47:36.758Z,14.63
2023-08-07T23:50:03.442Z,14.60
2023-08-07T23:52:30.248Z,14.59
2023-08-07T23:54:56.759Z,14.54
2023-08-07T23:57:23.323Z,14.59
2023-08-07T23:59:53.551Z,14.58
